Time;durP1;ratioP1;P1;durP2;ratioP2;P2;SDS_P1;SDS_P2;PMS_P1;PMS_P2;Temp;Humidity;BMP_temperature;BMP_pressure;BME280_temperature;BME280_humidity;BME280_pressure;Samples;Min_cycle;Max_cycle;Signal;HPM_P1;HPM_P2
2023/06/09 00:02:18;;;;;;;8.60;5.30;;;;;;;-144.73;63.30;84599.98;110551;1273;22185;-63
2023/06/09 00:05:04;;;;;;;9.50;4.90;;;;;;;-144.73;63.48;84607.88;110700;1273;22113;-64
2023/06/09 00:07:52;;;;;;;8.20;4.90;;;;;;;-144.73;63.57;84619.34;110702;1273;22184;-63
2023/06/09 00:10:38;;;;;;;8.90;5.50;;;;;;;-144.73;63.77;84619.73;110697;1273;22192;-63
2023/06/09 00:13:24;;;;;;;9.90;5.90;;;;;;;-144.73;63.90;84611.44;110712;1273;22117;-64
2023/06/09 00:16:11;;;;;;;7.60;5.20;;;;;;;-144.73;63.86;84606.30;110696;1273;22764;-65
2023/06/09 00:18:57;;;;;;;9.20;4.90;;;;;;;-144.73;64.18;84618.95;110559;1273;22186;-62
2023/06/09 00:21:49;;;;;;;11.30;5.90;;;;;;;-144.73;64.25;84621.33;111028;1259;22115;-63
2023/06/09 00:24:35;;;;;;;8.20;5.40;;;;;;;-144.73;64.41;84651.36;110669;1273;22176;-63
2023/06/09 00:27:21;;;;;;;10.90;5.20;;;;;;;-144.73;64.58;84637.92;110612;1273;22100;-61
2023/06/09 00:30:08;;;;;;;8.30;5.30;;;;;;;-144.73;64.78;84646.62;111194;1256;23015;-61
2023/06/09 00:32:54;;;;;;;12.00;5.90;;;;;;;-144.73;64.87;84654.92;110719;1273;22759;-61
2023/06/09 00:35:41;;;;;;;8.00;5.20;;;;;;;-144.73;65.02;84658.48;110543;1273;22853;-61
2023/06/09 00:38:27;;;;;;;11.80;6.00;;;;;;;-144.73;65.12;84640.70;110528;1273;22105;-62
2023/06/09 00:41:13;;;;;;;8.30;5.60;;;;;;;-144.73;65.20;84649.39;110485;1273;22901;-63
2023/06/09 00:43:59;;;;;;;9.20;6.20;;;;;;;-144.73;65.34;84639.90;110702;1273;22158;-61
2023/06/09 00:46:45;;;;;;;9.50;5.20;;;;;;;-144.73;65.50;84650.96;110630;1273;22190;-62
2023/06/09 00:49:31;;;;;;;9.80;5.30;;;;;;;-144.73;65.54;84644.64;110628;1273;22155;-66
2023/06/09 00:52:17;;;;;;;8.40;5.80;;;;;;;-144.73;65.67;84641.09;110573;1275;22312;-63
2023/06/09 00:55:04;;;;;;;9.50;5.30;;;;;;;-144.73;65.50;84631.20;110585;1275;22066;-60
2023/06/09 00:57:55;;;;;;;9.00;5.40;;;;;;;-144.73;65.52;84637.13;110600;1274;22092;-61
2023/06/09 01:00:41;;;;;;;11.50;5.80;;;;;;;-144.73;65.58;84633.17;110605;1275;22125;-67
2023/06/09 01:03:28;;;;;;;8.80;5.40;;;;;;;-144.73;65.62;84621.33;110516;1275;22942;-61
2023/06/09 01:06:26;;;;;;;13.00;5.80;;;;;;;-144.73;65.73;84642.67;110533;1273;22856;-61
2023/06/09 01:09:19;;;;;;;8.70;5.10;;;;;;;-144.73;65.75;84633.58;110563;1273;22877;-62
2023/06/09 01:12:22;;;;;;;8.40;5.30;;;;;;;-144.73;65.65;84641.48;110700;1273;22151;-61
2023/06/09 01:15:17;;;;;;;8.00;5.40;;;;;;;-144.73;65.78;84630.02;110702;1257;22332;-64
2023/06/09 01:18:08;;;;;;;8.90;6.10;;;;;;;-144.73;65.77;84638.31;110695;1273;22210;-62
2023/06/09 01:20:57;;;;;;;9.00;5.80;;;;;;;-144.73;65.74;84622.50;110710;1273;22424;-63
2023/06/09 01:24:09;;;;;;;10.30;5.80;;;;;;;-144.73;65.94;84631.98;110809;1251;22774;-62
2023/06/09 01:26:59;;;;;;;9.60;5.80;;;;;;;-144.73;65.86;84633.97;110630;1273;22127;-63
2023/06/09 01:29:47;;;;;;;10.50;6.10;;;;;;;-144.73;65.96;84627.25;110580;1273;22290;-60
2023/06/09 01:32:34;;;;;;;8.30;5.90;;;;;;;-144.73;66.03;84643.85;110556;1273;22801;-62
2023/06/09 01:35:21;;;;;;;8.60;5.70;;;;;;;-144.73;66.06;84636.73;110685;1273;22100;-63
2023/06/09 01:38:10;;;;;;;9.90;5.60;;;;;;;-144.73;66.14;84645.83;110545;1273;22113;-63
2023/06/09 01:40:57;;;;;;;10.70;5.90;;;;;;;-144.73;66.32;84645.83;110561;1273;22112;-64
2023/06/09 01:43:43;;;;;;;10.90;5.60;;;;;;;-144.73;66.28;84648.98;110640;1273;22110;-61
2023/06/09 01:46:29;;;;;;;9.60;5.70;;;;;;;-144.73;66.44;84648.99;111316;1266;22922;-61
2023/06/09 01:49:22;;;;;;;8.80;5.60;;;;;;;-144.73;66.40;84635.94;110684;1273;22887;-61
2023/06/09 01:52:15;;;;;;;9.40;5.20;;;;;;;-144.73;66.49;84648.59;110716;1273;22154;-61
2023/06/09 01:55:29;;;;;;;9.70;6.10;;;;;;;-144.73;66.73;84660.85;110687;1273;22783;-63
2023/06/09 01:58:47;;;;;;;8.10;5.60;;;;;;;-144.73;66.97;84671.92;110693;1273;22134;-61
2023/06/09 02:01:34;;;;;;;9.90;5.90;;;;;;;-144.73;67.08;84671.91;110526;1273;22183;-63
2023/06/09 02:04:23;;;;;;;10.10;5.70;;;;;;;-144.73;67.16;84677.06;110592;1273;22207;-63
2023/06/09 02:07:10;;;;;;;12.30;6.20;;;;;;;-144.73;67.21;84665.59;110568;1273;22783;-62
2023/06/09 02:09:56;;;;;;;8.80;6.20;;;;;;;-144.73;67.24;84671.13;110569;1273;22250;-62
2023/06/09 02:12:43;;;;;;;8.70;5.70;;;;;;;-144.73;67.41;84671.13;110545;1273;22207;-62
2023/06/09 02:15:30;;;;;;;11.40;5.60;;;;;;;-144.73;67.69;84682.20;110694;1273;22103;-62
2023/06/09 02:18:20;;;;;;;10.40;5.70;;;;;;;-144.73;67.75;84688.13;110610;1273;22127;-62
2023/06/09 02:21:08;;;;;;;9.60;5.90;;;;;;;-144.73;67.73;84691.30;110612;1273;22144;-63
2023/06/09 02:23:54;;;;;;;9.00;5.40;;;;;;;-144.73;67.65;84681.80;110712;1273;22614;-62
2023/06/09 02:26:40;;;;;;;9.70;6.10;;;;;;;-144.73;67.78;84660.45;110550;1273;22168;-62
2023/06/09 02:29:27;;;;;;;8.10;6.00;;;;;;;-144.73;67.86;84666.38;110539;1273;22115;-62
2023/06/09 02:32:13;;;;;;;9.90;6.00;;;;;;;-144.73;67.87;84684.56;110693;1273;22114;-62
2023/06/09 02:34:58;;;;;;;8.90;5.50;;;;;;;-144.73;68.09;84667.96;110668;1273;22122;-61
2023/06/09 02:37:45;;;;;;;11.30;6.40;;;;;;;-144.73;68.10;84670.34;110702;1272;22596;-62
2023/06/09 02:40:32;;;;;;;12.20;7.00;;;;;;;-144.73;68.14;84687.73;110717;1273;22950;-62
2023/06/09 02:43:18;;;;;;;9.60;6.60;;;;;;;-144.73;68.09;84670.34;110486;1273;22125;-64
2023/06/09 02:46:04;;;;;;;12.90;6.60;;;;;;;-144.73;67.92;84660.05;110700;1273;22777;-62
2023/06/09 02:48:51;;;;;;;12.60;6.50;;;;;;;-144.73;67.96;84670.73;110536;1273;22355;-63
2023/06/09 02:51:37;;;;;;;8.80;6.10;;;;;;;-144.73;67.95;84671.13;110611;1273;22141;-64
2023/06/09 02:54:24;;;;;;;10.50;5.90;;;;;;;-144.73;68.08;84670.33;110614;1273;22402;-64
2023/06/09 02:57:10;;;;;;;11.30;6.30;;;;;;;-144.73;68.02;84670.34;110561;1273;22107;-62
2023/06/09 02:59:58;;;;;;;12.00;7.00;;;;;;;-144.73;68.00;84652.55;111072;1263;22301;-62
2023/06/09 03:02:46;;;;;;;9.50;6.70;;;;;;;-144.73;68.00;84654.92;110728;1273;22917;-65
2023/06/09 03:05:35;;;;;;;11.60;6.00;;;;;;;-144.73;67.93;84668.76;110505;1273;22219;-61
2023/06/09 03:08:20;;;;;;;17.30;6.10;;;;;;;-144.73;67.77;84632.79;110598;1273;22111;-62
2023/06/09 03:11:06;;;;;;;9.90;6.50;;;;;;;-144.73;67.54;84613.02;110587;1273;22183;-62
2023/06/09 03:13:53;;;;;;;8.60;6.10;;;;;;;-144.73;67.18;84599.18;110595;1273;22147;-63
2023/06/09 03:16:40;;;;;;;9.50;6.50;;;;;;;-144.73;66.90;84567.16;110553;1273;22866;-63
2023/06/09 03:19:27;;;;;;;11.00;6.70;;;;;;;-144.73;66.71;84570.33;110606;1273;22142;-64
2023/06/09 03:22:13;;;;;;;8.90;6.20;;;;;;;-144.73;66.40;84545.42;110569;1273;22180;-61
2023/06/09 03:25:01;;;;;;;11.10;6.40;;;;;;;-144.73;66.03;84532.77;110705;1273;22136;-62
2023/06/09 03:27:47;;;;;;;10.00;5.80;;;;;;;-144.73;65.63;84520.91;110632;1273;22126;-63
2023/06/09 03:30:33;;;;;;;11.00;6.20;;;;;;;-144.73;65.40;84514.59;110564;1273;22174;-64
2023/06/09 03:33:20;;;;;;;9.20;6.20;;;;;;;-144.73;65.21;84500.75;110545;1260;22112;-61
2023/06/09 03:36:08;;;;;;;9.50;6.20;;;;;;;-144.73;65.15;84497.59;110718;1273;22116;-62
2023/06/09 03:38:55;;;;;;;11.60;6.30;;;;;;;-144.73;64.87;84491.66;110715;1273;22226;-64
2023/06/09 03:41:42;;;;;;;13.20;6.80;;;;;;;-144.73;64.66;84482.56;110584;1273;22108;-62
2023/06/09 03:44:28;;;;;;;8.70;5.80;;;;;;;-144.73;64.62;84480.60;110586;1273;22204;-64
2023/06/09 03:47:15;;;;;;;11.50;7.10;;;;;;;-144.73;64.33;84460.43;110584;1273;22122;-61
2023/06/09 03:50:01;;;;;;;13.00;6.70;;;;;;;-144.73;64.32;84468.34;110555;1273;22427;-63
2023/06/09 03:52:47;;;;;;;10.40;6.20;;;;;;;-144.73;64.45;84450.95;110563;1273;22218;-63
2023/06/09 03:55:34;;;;;;;11.70;6.80;;;;;;;-144.73;64.27;84446.20;110528;1273;22138;-61
2023/06/09 03:58:21;;;;;;;12.10;6.80;;;;;;;-144.73;64.52;84462.02;110577;1273;22128;-64
2023/06/09 04:01:10;;;;;;;9.40;6.20;;;;;;;-144.73;64.53;84452.92;110614;1273;22120;-63
2023/06/09 04:03:57;;;;;;;13.10;6.00;;;;;;;-144.73;64.49;84436.32;110554;1273;22849;-63
2023/06/09 04:06:45;;;;;;;8.70;6.50;;;;;;;-144.73;64.32;84455.69;110581;1273;22186;-62
2023/06/09 04:09:35;;;;;;;8.90;6.00;;;;;;;-144.73;64.44;84440.67;110582;1259;22126;-64
2023/06/09 04:12:21;;;;;;;9.80;6.80;;;;;;;-144.73;64.47;84422.88;110565;1273;22244;-63
2023/06/09 04:15:08;;;;;;;10.40;6.70;;;;;;;-144.73;64.09;84414.19;110576;1273;22841;-62
2023/06/09 04:17:55;;;;;;;13.70;6.60;;;;;;;-144.73;63.78;84401.54;110613;1273;22274;-62
2023/06/09 04:20:44;;;;;;;14.90;8.20;;;;;;;-144.73;63.69;84384.94;110602;1273;22138;-63
2023/06/09 04:23:32;;;;;;;9.40;6.90;;;;;;;-144.73;63.60;84384.94;110584;1273;22100;-62
2023/06/09 04:26:18;;;;;;;10.10;7.00;;;;;;;-144.73;63.54;84372.68;111052;1256;22297;-63
2023/06/09 04:29:09;;;;;;;10.60;7.20;;;;;;;-144.73;63.23;84347.78;110601;1273;22187;-61
2023/06/09 04:31:58;;;;;;;11.10;7.30;;;;;;;-144.73;62.90;84330.39;110494;1273;22230;-62
2023/06/09 04:34:46;;;;;;;12.90;8.30;;;;;;;-144.73;62.73;84333.15;110555;1273;22164;-64
2023/06/09 04:37:35;;;;;;;12.30;7.60;;;;;;;-144.73;62.40;84335.92;110632;1273;22963;-63
2023/06/09 04:40:22;;;;;;;14.10;7.70;;;;;;;-144.73;62.32;84330.78;110541;1273;22207;-63
2023/06/09 04:43:09;;;;;;;15.40;9.20;;;;;;;-144.73;62.31;84326.83;111089;1257;22120;-64
2023/06/09 04:45:57;;;;;;;16.60;8.40;;;;;;;-144.73;62.13;84325.65;110517;1273;22221;-64
2023/06/09 04:48:44;;;;;;;14.00;7.40;;;;;;;-144.73;62.09;84318.14;110594;1273;22207;-62
2023/06/09 04:51:41;;;;;;;12.70;7.10;;;;;;;-144.73;61.87;84305.88;110557;1273;22089;-63
2023/06/09 04:54:28;;;;;;;11.10;7.00;;;;;;;-144.73;61.99;84299.16;110611;1253;22307;-61
2023/06/09 04:57:17;;;;;;;11.40;7.20;;;;;;;-144.73;61.32;84284.54;110584;1273;22332;-63
2023/06/09 05:00:07;;;;;;;12.10;6.80;;;;;;;-144.73;61.19;84273.86;110520;1273;22123;-61
2023/06/09 05:02:56;;;;;;;12.90;7.40;;;;;;;-144.73;60.95;84263.59;110593;1273;22136;-62
2023/06/09 05:05:43;;;;;;;15.10;7.10;;;;;;;-144.73;60.94;84269.52;110483;1273;22257;-65
2023/06/09 05:08:30;;;;;;;13.60;6.50;;;;;;;-144.73;60.53;84223.27;110577;1273;22192;-64
2023/06/09 05:11:20;;;;;;;15.40;7.00;;;;;;;-144.73;59.77;84191.26;110617;1255;22141;-65
2023/06/09 05:14:10;;;;;;;13.20;6.90;;;;;;;-144.73;58.89;84163.59;110592;1273;22188;-65
2023/06/09 05:16:56;;;;;;;14.80;6.90;;;;;;;-144.73;56.98;84148.97;110505;1273;22127;-63
2023/06/09 05:19:42;;;;;;;13.50;7.10;;;;;;;-144.73;57.17;84125.26;110478;1273;22111;-64
2023/06/09 05:22:33;;;;;;;14.00;7.30;;;;;;;-144.73;56.96;84093.63;110604;1273;22898;-66
2023/06/09 05:25:20;;;;;;;11.50;6.20;;;;;;;-144.73;56.94;84078.22;110518;1273;22230;-62
2023/06/09 05:28:06;;;;;;;12.90;7.10;;;;;;;-144.73;55.86;84037.50;110522;1273;22128;-62
2023/06/09 05:30:53;;;;;;;9.20;5.40;;;;;;;-144.73;54.02;84017.73;110565;1273;22121;-62
2023/06/09 05:33:39;;;;;;;10.10;5.60;;;;;;;-144.73;53.72;84001.93;110534;1274;22325;-61
2023/06/09 05:36:26;;;;;;;10.30;6.50;;;;;;;-144.73;53.04;83981.38;110419;1275;22108;-63
2023/06/09 05:39:15;;;;;;;11.30;5.60;;;;;;;-144.73;52.23;83969.91;110458;1275;22242;-64
2023/06/09 05:42:01;;;;;;;8.50;5.60;;;;;;;-144.73;51.36;83943.05;110528;1275;22894;-62
2023/06/09 05:44:47;;;;;;;11.50;5.40;;;;;;;-144.73;51.24;83898.77;110513;1274;22213;-62
2023/06/09 05:47:33;;;;;;;11.60;6.00;;;;;;;-144.73;50.89;83862.02;110536;1275;22219;-65
2023/06/09 05:50:20;;;;;;;8.40;5.50;;;;;;;-144.73;50.55;83651.77;110529;1265;22143;-65
2023/06/09 05:53:05;;;;;;;12.90;5.60;;;;;;;-144.73;47.04;83126.58;110473;1274;22342;-63
2023/06/09 05:55:53;;;;;;;11.40;5.10;;;;;;;-144.73;43.02;82855.91;110579;1273;22347;-65
2023/06/09 05:58:40;;;;;;;7.80;4.70;;;;;;;-144.73;40.84;82614.09;110531;1273;22130;-63
2023/06/09 06:01:26;;;;;;;8.00;4.80;;;;;;;-144.73;38.61;82357.69;110545;1273;22301;-65
2023/06/09 06:04:12;;;;;;;11.70;5.30;;;;;;;-144.73;36.85;82140.79;110547;1273;22355;-66
2023/06/09 06:06:58;;;;;;;8.70;5.30;;;;;;;-144.73;35.81;81966.98;110616;1266;22129;-64
2023/06/09 06:09:44;;;;;;;11.50;5.00;;;;;;;-144.73;33.29;81671.10;110779;1252;22094;-64
2023/06/09 06:12:31;;;;;;;13.70;5.90;;;;;;;-144.73;32.22;81590.91;110655;1267;22141;-64
2023/06/09 06:15:17;;;;;;;14.20;5.40;;;;;;;-144.73;31.38;81607.90;110558;1267;22797;-64
2023/06/09 06:18:03;;;;;;;9.90;5.20;;;;;;;-144.73;31.61;81474.00;110561;1275;22114;-65
2023/06/09 06:20:50;;;;;;;11.40;5.70;;;;;;;-144.73;30.64;81085.73;110563;1274;22230;-66
2023/06/09 06:23:36;;;;;;;12.70;6.80;;;;;;;-144.73;28.63;80869.70;110478;1271;22127;-66
2023/06/09 06:26:22;;;;;;;11.90;5.60;;;;;;;-144.73;28.96;81000.04;110529;1273;22781;-61
2023/06/09 06:29:08;;;;;;;11.00;5.50;;;;;;;-144.73;28.82;80925.00;110576;1273;22135;-69
2023/06/09 06:31:55;;;;;;;11.50;5.00;;;;;;;-144.73;28.03;80730.30;110713;1252;22107;-61
2023/06/09 06:34:41;;;;;;;12.30;5.10;;;;;;;-144.73;26.71;80465.71;110628;1273;22186;-61
2023/06/09 06:37:28;;;;;;;11.80;4.80;;;;;;;-144.73;26.50;80620.13;110455;1263;22317;-63
2023/06/09 06:40:14;;;;;;;10.80;4.20;;;;;;;-144.73;26.14;80649.34;110470;1274;22319;-63
2023/06/09 06:43:00;;;;;;;10.50;4.40;;;;;;;-144.73;26.31;80713.32;110460;1267;22176;-62
2023/06/09 06:45:58;;;;;;;13.10;4.40;;;;;;;-144.73;26.27;80671.85;110450;1259;22192;-63
2023/06/09 06:48:44;;;;;;;8.80;4.20;;;;;;;-144.73;25.98;80427.80;110492;1262;22188;-62
2023/06/09 06:51:30;;;;;;;7.90;3.70;;;;;;;-144.73;25.49;80071.23;110482;1267;22281;-63
2023/06/09 06:54:17;;;;;;;7.10;3.30;;;;;;;-144.73;24.88;79760.89;110517;1267;22346;-62
2023/06/09 06:59:40;;;;;;;13.90;3.60;;;;;;;-144.73;23.92;79526.77;104172;1300;544935;-63
2023/06/09 07:02:27;;;;;;;5.40;2.80;;;;;;;-144.73;23.89;79557.18;105773;1288;22555;-63
2023/06/09 07:05:14;;;;;;;9.20;3.60;;;;;;;-144.73;23.86;79477.03;105818;1288;24231;-62
2023/06/09 07:08:01;;;;;;;7.90;3.70;;;;;;;-144.73;23.40;79325.04;105805;1288;22527;-62
2023/06/09 07:10:47;;;;;;;11.30;2.90;;;;;;;-144.73;23.37;79215.29;105800;1288;22642;-62
2023/06/09 07:13:33;;;;;;;6.40;2.70;;;;;;;-144.73;22.95;79000.55;105922;1282;160368;-61
2023/06/09 07:16:20;;;;;;;7.10;3.10;;;;;;;-144.73;22.60;79218.45;106174;1284;25239;-62
2023/06/09 07:19:09;;;;;;;10.20;2.70;;;;;;;-144.73;22.82;79289.91;106203;1284;25357;-62
2023/06/09 07:21:55;;;;;;;12.30;3.10;;;;;;;-144.73;22.67;79274.11;106180;1284;25357;-60
2023/06/09 07:24:42;;;;;;;7.30;3.00;;;;;;;-144.73;22.73;79510.20;106167;1284;24257;-64
2023/06/09 07:27:28;;;;;;;8.40;3.00;;;;;;;-144.73;23.64;79839.07;106209;1284;22529;-68
2023/06/09 07:30:15;;;;;;;6.50;3.20;;;;;;;-144.73;23.72;79747.48;106238;1284;25454;-64
2023/06/09 07:33:02;;;;;;;5.70;2.80;;;;;;;-144.73;23.33;79450.19;106776;1275;24609;-65
2023/06/09 07:35:49;;;;;;;6.10;3.20;;;;;;;-144.73;23.25;79409.13;106785;1275;24282;-65
2023/06/09 07:38:38;;;;;;;7.00;3.30;;;;;;;-144.73;23.15;79394.91;106900;1275;22537;-65
2023/06/09 07:41:24;;;;;;;5.10;2.60;;;;;;;-144.73;23.39;79616.39;106771;1275;24273;-65
2023/06/09 07:44:10;;;;;;;8.40;3.00;;;;;;;-144.73;23.41;79529.55;106775;1275;22525;-65
2023/06/09 07:46:56;;;;;;;5.20;3.00;;;;;;;-144.73;23.12;79377.94;106755;1259;22527;-62
2023/06/09 07:49:43;;;;;;;7.40;2.90;;;;;;;-144.73;22.40;79347.15;106867;1270;26636;-64
2023/06/09 07:52:29;;;;;;;10.70;3.40;;;;;;;-144.73;22.93;79741.16;106826;1275;22518;-63
2023/06/09 07:55:16;;;;;;;7.10;2.70;;;;;;;-144.73;23.26;80111.13;106789;1275;22519;-62
2023/06/09 07:58:02;;;;;;;8.80;2.40;;;;;;;-144.73;23.68;80424.25;106714;1275;22534;-62
2023/06/09 08:00:50;;;;;;;6.00;2.20;;;;;;;-144.73;24.11;80418.72;106761;1275;25227;-61
2023/06/09 08:03:37;;;;;;;6.70;2.60;;;;;;;-144.73;24.10;80120.98;106767;1275;25507;-62
2023/06/09 08:06:25;;;;;;;5.90;2.70;;;;;;;-144.73;23.53;80100.86;106731;1275;23905;-62
2023/06/09 08:09:11;;;;;;;9.90;2.90;;;;;;;-144.73;23.87;80115.85;106743;1276;25281;-62
2023/06/09 08:11:58;;;;;;;7.80;3.20;;;;;;;-144.73;24.19;80268.67;106741;1276;22519;-62
2023/06/09 08:14:45;;;;;;;9.20;3.20;;;;;;;-144.73;24.29;80352.38;106749;1276;23925;-63
2023/06/09 08:17:31;;;;;;;5.30;3.10;;;;;;;-144.73;24.56;80284.46;106741;1275;22519;-63
2023/06/09 08:20:17;;;;;;;6.00;2.60;;;;;;;-144.73;23.82;80030.57;106742;1276;22609;-64
2023/06/09 08:23:05;;;;;;;5.30;2.30;;;;;;;-144.73;23.42;80160.48;106672;1276;25335;-63
2023/06/09 08:25:52;;;;;;;5.90;2.30;;;;;;;-144.73;23.86;80717.27;106725;1275;25335;-63
2023/06/09 08:28:38;;;;;;;4.50;2.50;;;;;;;-144.73;24.19;80736.62;106791;1276;22563;-62
2023/06/09 08:31:27;;;;;;;6.50;3.10;;;;;;;-144.73;25.02;81092.46;106751;1276;22519;-62
2023/06/09 08:34:14;;;;;;;7.70;2.60;;;;;;;-144.73;25.86;81240.17;106735;1259;22998;-62
2023/06/09 08:37:01;;;;;;;7.70;2.70;;;;;;;-144.73;26.37;81579.46;106728;1259;25354;-62
2023/06/09 08:39:47;;;;;;;7.20;3.10;;;;;;;-144.73;26.11;81161.58;106758;1275;25483;-62
2023/06/09 08:42:35;;;;;;;5.10;2.30;;;;;;;-144.73;25.17;80883.52;106739;1276;24330;-62
2023/06/09 08:45:23;;;;;;;7.20;2.70;;;;;;;-144.73;24.69;80779.27;106749;1276;22529;-66
2023/06/09 08:48:16;;;;;;;6.50;2.30;;;;;;;-144.73;24.59;80713.71;106747;1276;22507;-64
2023/06/09 08:51:02;;;;;;;7.30;2.90;;;;;;;-144.73;24.87;80823.11;106729;1275;25681;-64
2023/06/09 08:53:54;;;;;;;6.60;3.10;;;;;;;-144.73;24.81;80735.43;106758;1259;22519;-63
2023/06/09 08:56:40;;;;;;;7.60;2.90;;;;;;;-144.73;24.74;80789.94;106981;1276;23079;-62
2023/06/09 08:59:33;;;;;;;12.20;3.00;;;;;;;-144.73;24.41;80897.75;106711;1276;22519;-62
2023/06/09 09:02:19;;;;;;;7.70;2.70;;;;;;;-144.73;24.72;81311.66;106653;1272;24273;-61
2023/06/09 09:05:06;;;;;;;7.00;2.80;;;;;;;-144.73;24.97;81657.27;106663;1276;25217;-62
2023/06/09 09:07:52;;;;;;;11.70;2.90;;;;;;;-144.73;26.11;81980.01;106719;1276;24221;-63
2023/06/09 09:10:43;;;;;;;6.10;2.70;;;;;;;-144.73;26.84;82217.04;106727;1253;22612;-66
2023/06/09 09:13:31;;;;;;;14.30;3.40;;;;;;;-144.73;27.43;82273.54;106658;1276;22523;-62
2023/06/09 09:16:18;;;;;;;8.50;2.90;;;;;;;-144.73;27.34;82338.33;106692;1257;22522;-62
2023/06/09 09:19:05;;;;;;;5.30;2.90;;;;;;;-144.73;27.56;82411.80;106690;1276;25379;-62
2023/06/09 09:21:55;;;;;;;9.60;2.60;;;;;;;-144.73;27.66;82411.02;106684;1276;25484;-63
2023/06/09 09:24:45;;;;;;;13.50;3.20;;;;;;;-144.73;27.79;82441.45;106702;1276;24264;-63
2023/06/09 09:27:31;;;;;;;10.50;3.00;;;;;;;-144.73;27.57;82464.36;106998;1267;22512;-63
2023/06/09 09:30:18;;;;;;;9.10;3.20;;;;;;;-144.73;27.89;82512.16;106943;1255;22523;-63
2023/06/09 09:33:09;;;;;;;7.00;3.10;;;;;;;-144.73;27.83;82596.32;107006;1274;25337;-62
2023/06/09 09:35:59;;;;;;;8.80;3.60;;;;;;;-144.73;28.31;82729.47;106966;1274;22741;-61
2023/06/09 09:38:46;;;;;;;7.80;2.90;;;;;;;-144.73;28.77;82780.83;107017;1274;22522;-61
2023/06/09 09:41:32;;;;;;;8.40;3.20;;;;;;;-144.73;29.93;82776.48;110559;1274;22272;-62
2023/06/09 09:44:18;;;;;;;6.90;3.00;;;;;;;-144.73;28.76;82793.08;110561;1274;22932;-62
2023/06/09 09:47:05;;;;;;;5.70;2.60;;;;;;;-144.73;28.97;82836.15;110546;1274;22143;-62
2023/06/09 09:49:56;;;;;;;8.30;3.00;;;;;;;-144.73;29.36;82866.58;110567;1274;22231;-63
2023/06/09 09:52:43;;;;;;;4.40;2.30;;;;;;;-144.73;29.50;82879.61;110533;1274;22304;-63
2023/06/09 09:55:29;;;;;;;8.80;3.20;;;;;;;-144.73;29.43;82863.41;110532;1274;23017;-63
2023/06/09 09:58:15;;;;;;;6.90;3.00;;;;;;;-144.73;28.55;82890.28;110529;1274;22224;-66
2023/06/09 10:01:04;;;;;;;8.70;3.20;;;;;;;-144.73;29.26;82944.41;110523;1274;22103;-64
2023/06/09 10:03:53;;;;;;;8.10;3.00;;;;;;;-144.73;29.25;82967.73;110518;1274;22169;-65
2023/06/09 10:06:43;;;;;;;6.10;3.10;;;;;;;-144.73;29.23;82968.13;110708;1266;22356;-66
2023/06/09 10:09:30;;;;;;;10.50;3.90;;;;;;;-144.73;29.01;82934.93;110553;1274;22117;-65
2023/06/09 10:12:17;;;;;;;9.90;2.90;;;;;;;-144.73;28.57;82925.84;110602;1266;22238;-64
2023/06/09 10:15:08;;;;;;;10.60;3.20;;;;;;;-144.73;28.56;82929.80;110589;1253;22414;-65
2023/06/09 10:17:56;;;;;;;12.00;3.30;;;;;;;-144.73;28.58;82945.99;110542;1274;22092;-64
2023/06/09 10:20:43;;;;;;;9.70;3.90;;;;;;;-144.73;28.93;82942.43;110676;1266;22306;-65
2023/06/09 10:23:30;;;;;;;8.50;3.10;;;;;;;-144.73;28.83;82900.95;110546;1274;22150;-64
2023/06/09 10:26:16;;;;;;;10.10;3.40;;;;;;;-144.73;28.49;82914.39;110654;1269;22222;-66
2023/06/09 10:29:08;;;;;;;8.30;3.50;;;;;;;-144.73;28.08;82932.56;110560;1274;22348;-66
2023/06/09 10:31:55;;;;;;;;;;;;;;;-144.73;28.30;82966.55;110589;1268;23089;-65
2023/06/09 10:34:47;;;;;;;6.40;3.00;;;;;;;-144.73;28.60;82968.91;110589;1267;22108;-65
2023/06/09 10:37:35;;;;;;;8.10;2.90;;;;;;;-144.73;28.66;82975.23;110564;1274;22316;-66
2023/06/09 10:40:29;;;;;;;5.50;3.10;;;;;;;-144.73;28.94;82976.42;110565;1274;22481;-65
2023/06/09 10:43:38;;;;;;;8.70;3.60;;;;;;;-144.73;29.07;82971.67;110577;1274;22118;-67
2023/06/09 10:46:47;;;;;;;8.10;3.40;;;;;;;-144.73;29.34;82982.35;110548;1274;22954;-65
2023/06/09 10:49:36;;;;;;;8.10;3.10;;;;;;;-144.73;29.07;83019.50;110622;1256;22144;-64
2023/06/09 10:52:38;;;;;;;10.90;3.80;;;;;;;-144.73;29.26;83052.29;110561;1274;22207;-68
2023/06/09 10:55:28;;;;;;;6.80;3.50;;;;;;;-144.73;29.12;83095.36;110580;1274;22827;-65
2023/06/09 10:58:39;;;;;;;9.40;3.50;;;;;;;-144.73;29.72;83054.27;110527;1274;22186;-63
2023/06/09 11:01:25;;;;;;;9.20;3.50;;;;;;;-144.73;29.77;83044.78;110526;1274;23125;-62
2023/06/09 11:04:44;;;;;;;6.60;3.20;;;;;;;-144.73;29.29;83007.23;110571;1274;22212;-64
2023/06/09 11:07:39;;;;;;;9.70;3.10;;;;;;;-144.73;29.52;82952.31;110551;1274;22223;-63
2023/06/09 11:10:26;;;;;;;5.80;3.20;;;;;;;-144.73;29.33;82935.73;110524;1274;22222;-63
2023/06/09 11:13:42;;;;;;;7.00;3.40;;;;;;;-144.73;29.33;82906.08;110549;1274;22834;-64
2023/06/09 11:17:13;;;;;;;9.30;3.20;;;;;;;-144.73;29.07;82864.60;110087;1280;22218;-64
2023/06/09 11:20:06;;;;;;;5.80;3.20;;;;;;;-144.73;28.99;82789.13;110039;1280;22825;-63
2023/06/09 11:22:54;;;;;;;4.20;2.80;;;;;;;-144.73;28.85;82778.45;110049;1262;22161;-65
2023/06/09 11:25:40;;;;;;;6.70;3.40;;;;;;;-144.73;28.78;82807.70;110056;1272;23055;-64
2023/06/09 11:28:26;;;;;;;5.60;3.10;;;;;;;-144.73;28.74;82881.20;110050;1280;22111;-63
2023/06/09 11:31:12;;;;;;;9.00;3.20;;;;;;;-144.73;29.00;82918.34;110054;1280;22237;-62
2023/06/09 11:33:59;;;;;;;11.60;3.60;;;;;;;-144.73;29.25;82904.11;110080;1272;23080;-63
2023/06/09 11:36:47;;;;;;;5.30;3.10;;;;;;;-144.73;29.18;82854.33;110062;1280;22172;-65
2023/06/09 11:39:35;;;;;;;6.10;3.20;;;;;;;-144.73;28.68;82808.48;110219;1262;22168;-64
2023/06/09 11:42:22;;;;;;;7.50;3.10;;;;;;;-144.73;28.75;82776.09;110060;1280;22154;-62
2023/06/09 11:45:08;;;;;;;7.90;2.90;;;;;;;-144.73;28.59;82797.03;110070;1280;22177;-63
2023/06/09 11:47:59;;;;;;;5.20;3.10;;;;;;;-144.73;28.51;82744.09;110190;1272;22176;-64
2023/06/09 11:50:46;;;;;;;9.50;2.90;;;;;;;-144.73;28.14;82761.86;110077;1280;22226;-63
2023/06/09 11:53:34;;;;;;;8.90;3.30;;;;;;;-144.73;28.55;82710.11;110457;1274;22304;-62
2023/06/09 11:56:21;;;;;;;8.20;3.30;;;;;;;-144.73;28.31;82637.02;110569;1274;22270;-63
2023/06/09 11:59:07;;;;;;;8.30;3.00;;;;;;;-144.73;28.03;82601.45;110529;1274;22130;-63
2023/06/09 12:01:53;;;;;;;7.40;2.60;;;;;;;-144.73;28.21;82608.17;110508;1274;22743;-64
2023/06/09 12:04:43;;;;;;;6.50;2.60;;;;;;;-144.73;27.69;82548.12;110546;1274;22264;-63
2023/06/09 12:07:29;;;;;;;7.10;3.30;;;;;;;-144.73;27.31;82571.83;110616;1274;22111;-63
2023/06/09 12:10:19;;;;;;;10.20;2.60;;;;;;;-144.73;28.21;82640.57;110563;1258;22221;-62
2023/06/09 12:13:06;;;;;;;5.80;3.50;;;;;;;-144.73;28.40;82611.33;110524;1275;22113;-62
2023/06/09 12:15:52;;;;;;;8.70;3.50;;;;;;;-144.73;28.29;82623.98;110519;1275;23041;-64
2023/06/09 12:18:38;;;;;;;5.40;3.10;;;;;;;-144.73;28.04;82640.58;110505;1275;22116;-65
2023/06/09 12:21:24;;;;;;;4.90;3.00;;;;;;;-144.73;28.23;82604.61;110500;1275;22273;-64
2023/06/09 12:24:11;;;;;;;4.70;2.70;;;;;;;-144.73;27.84;82519.67;110512;1275;22220;-63
2023/06/09 12:27:09;;;;;;;8.80;3.20;;;;;;;-144.73;27.48;82439.07;110543;1275;22117;-64
2023/06/09 12:29:55;;;;;;;6.10;3.00;;;;;;;-144.73;27.43;82443.81;110519;1275;22104;-64
2023/06/09 12:32:41;;;;;;;7.50;3.30;;;;;;;-144.73;27.28;82298.82;110538;1263;22142;-65
2023/06/09 12:35:36;;;;;;;9.20;3.00;;;;;;;-144.73;27.25;82339.91;110514;1275;22213;-64
2023/06/09 12:38:26;;;;;;;7.10;2.70;;;;;;;-144.73;27.36;82386.13;110486;1275;22207;-63
2023/06/09 12:41:14;;;;;;;5.00;2.80;;;;;;;-144.73;27.50;82532.70;110481;1275;22283;-65
2023/06/09 12:44:00;;;;;;;4.20;2.40;;;;;;;-144.73;27.91;82655.19;110550;1275;22077;-64
2023/06/09 12:46:51;;;;;;;8.30;3.10;;;;;;;-144.73;27.92;82644.91;110506;1275;22232;-63